sensor_id;sensor_type;location;lat;lon;timestamp;P1;durP1;ratioP1;P2;durP2;ratioP2
10902;SDS011;5504;47.312;11.060;2024-03-08T00:00:43;27.57;;;17.47;;
10902;SDS011;5504;47.312;11.060;2024-03-08T00:03:08;28.23;;;18.23;;
10902;SDS011;5504;47.312;11.060;2024-03-08T00:05:35;28.23;;;18.27;;
10902;SDS011;5504;47.312;11.060;2024-03-08T00:08:03;28.53;;;18.50;;
10902;SDS011;5504;47.312;11.060;2024-03-08T00:10:30;28.43;;;18.13;;
10902;SDS011;5504;47.312;11.060;2024-03-08T00:12:56;29.23;;;18.70;;
10902;SDS011;5504;47.312;11.060;2024-03-08T00:15:22;29.00;;;18.13;;
10902;SDS011;5504;47.312;11.060;2024-03-08T00:17:48;27.13;;;17.60;;
10902;SDS011;5504;47.312;11.060;2024-03-08T00:20:14;27.77;;;18.27;;
10902;SDS011;5504;47.312;11.060;2024-03-08T00:22:42;27.87;;;17.83;;
10902;SDS011;5504;47.312;11.060;2024-03-08T00:25:08;27.57;;;17.40;;
10902;SDS011;5504;47.312;11.060;2024-03-08T00:27:34;29.80;;;18.43;;
10902;SDS011;5504;47.312;11.060;2024-03-08T00:30:01;27.40;;;17.63;;
10902;SDS011;5504;47.312;11.060;2024-03-08T00:32:27;29.20;;;18.33;;
10902;SDS011;5504;47.312;11.060;2024-03-08T00:34:53;29.57;;;18.13;;
10902;SDS011;5504;47.312;11.060;2024-03-08T00:37:22;29.00;;;19.07;;
10902;SDS011;5504;47.312;11.060;2024-03-08T00:39:48;29.83;;;19.30;;
10902;SDS011;5504;47.312;11.060;2024-03-08T00:42:17;28.67;;;18.03;;
10902;SDS011;5504;47.312;11.060;2024-03-08T00:44:44;28.90;;;18.53;;
10902;SDS011;5504;47.312;11.060;2024-03-08T00:47:10;26.97;;;17.47;;
10902;SDS011;5504;47.312;11.060;2024-03-08T00:49:36;28.13;;;17.50;;
10902;SDS011;5504;47.312;11.060;2024-03-08T00:52:03;28.00;;;17.53;;
10902;SDS011;5504;47.312;11.060;2024-03-08T00:54:32;29.70;;;18.17;;
10902;SDS011;5504;47.312;11.060;2024-03-08T00:56:58;29.90;;;17.97;;
10902;SDS011;5504;47.312;11.060;2024-03-08T00:59:23;27.50;;;18.30;;
10902;SDS011;5504;47.312;11.060;2024-03-08T01:01:49;30.37;;;18.57;;
10902;SDS011;5504;47.312;11.060;2024-03-08T01:04:15;27.77;;;17.87;;
10902;SDS011;5504;47.312;11.060;2024-03-08T01:06:41;28.63;;;17.90;;
10902;SDS011;5504;47.312;11.060;2024-03-08T01:09:10;26.37;;;17.03;;
10902;SDS011;5504;47.312;11.060;2024-03-08T01:11:36;26.50;;;17.33;;
10902;SDS011;5504;47.312;11.060;2024-03-08T01:14:03;28.07;;;17.50;;
10902;SDS011;5504;47.312;11.060;2024-03-08T01:16:29;25.50;;;16.93;;
10902;SDS011;5504;47.312;11.060;2024-03-08T01:18:54;26.60;;;16.80;;
10902;SDS011;5504;47.312;11.060;2024-03-08T01:21:20;28.43;;;17.37;;
10902;SDS011;5504;47.312;11.060;2024-03-08T01:23:47;27.03;;;17.07;;
10902;SDS011;5504;47.312;11.060;2024-03-08T01:26:13;25.67;;;16.43;;
10902;SDS011;5504;47.312;11.060;2024-03-08T01:28:40;27.10;;;16.10;;
10902;SDS011;5504;47.312;11.060;2024-03-08T01:31:06;26.93;;;16.80;;
10902;SDS011;5504;47.312;11.060;2024-03-08T01:33:31;29.10;;;17.80;;
10902;SDS011;5504;47.312;11.060;2024-03-08T01:35:57;27.17;;;17.50;;
10902;SDS011;5504;47.312;11.060;2024-03-08T01:38:23;30.00;;;17.43;;
10902;SDS011;5504;47.312;11.060;2024-03-08T01:40:50;29.37;;;17.10;;
10902;SDS011;5504;47.312;11.060;2024-03-08T01:43:20;26.60;;;17.40;;
10902;SDS011;5504;47.312;11.060;2024-03-08T01:45:47;25.97;;;16.87;;
10902;SDS011;5504;47.312;11.060;2024-03-08T01:48:13;26.57;;;17.33;;
10902;SDS011;5504;47.312;11.060;2024-03-08T01:50:43;30.87;;;17.90;;
10902;SDS011;5504;47.312;11.060;2024-03-08T01:53:09;28.07;;;17.47;;
10902;SDS011;5504;47.312;11.060;2024-03-08T01:55:37;29.17;;;18.93;;
10902;SDS011;5504;47.312;11.060;2024-03-08T01:58:07;27.33;;;16.83;;
10902;SDS011;5504;47.312;11.060;2024-03-08T02:00:36;26.03;;;16.20;;
10902;SDS011;5504;47.312;11.060;2024-03-08T02:03:05;28.10;;;16.93;;
10902;SDS011;5504;47.312;11.060;2024-03-08T02:05:31;28.13;;;16.47;;
10902;SDS011;5504;47.312;11.060;2024-03-08T02:07:57;29.23;;;16.97;;
10902;SDS011;5504;47.312;11.060;2024-03-08T02:10:23;26.30;;;16.83;;
10902;SDS011;5504;47.312;11.060;2024-03-08T02:12:49;29.53;;;17.97;;
10902;SDS011;5504;47.312;11.060;2024-03-08T02:15:16;27.37;;;17.50;;
10902;SDS011;5504;47.312;11.060;2024-03-08T02:17:41;29.63;;;17.87;;
10902;SDS011;5504;47.312;11.060;2024-03-08T02:20:07;27.33;;;17.03;;
10902;SDS011;5504;47.312;11.060;2024-03-08T02:22:35;25.87;;;16.47;;
10902;SDS011;5504;47.312;11.060;2024-03-08T02:25:02;26.50;;;16.17;;
10902;SDS011;5504;47.312;11.060;2024-03-08T02:27:28;29.97;;;17.47;;
10902;SDS011;5504;47.312;11.060;2024-03-08T02:29:55;29.33;;;16.97;;
10902;SDS011;5504;47.312;11.060;2024-03-08T02:32:22;29.53;;;18.33;;
10902;SDS011;5504;47.312;11.060;2024-03-08T02:34:48;29.97;;;18.00;;
10902;SDS011;5504;47.312;11.060;2024-03-08T02:37:15;30.93;;;17.27;;
10902;SDS011;5504;47.312;11.060;2024-03-08T02:39:41;27.87;;;16.73;;
10902;SDS011;5504;47.312;11.060;2024-03-08T02:42:07;28.03;;;16.87;;
10902;SDS011;5504;47.312;11.060;2024-03-08T02:44:33;28.97;;;16.37;;
10902;SDS011;5504;47.312;11.060;2024-03-08T02:46:59;26.37;;;16.47;;
10902;SDS011;5504;47.312;11.060;2024-03-08T02:49:25;27.60;;;16.73;;
10902;SDS011;5504;47.312;11.060;2024-03-08T02:51:51;25.87;;;16.43;;
10902;SDS011;5504;47.312;11.060;2024-03-08T02:54:18;28.73;;;16.13;;
10902;SDS011;5504;47.312;11.060;2024-03-08T02:56:45;23.80;;;15.47;;
10902;SDS011;5504;47.312;11.060;2024-03-08T02:59:12;27.17;;;16.60;;
10902;SDS011;5504;47.312;11.060;2024-03-08T03:01:38;29.20;;;17.10;;
10902;SDS011;5504;47.312;11.060;2024-03-08T03:04:04;29.07;;;17.73;;
10902;SDS011;5504;47.312;11.060;2024-03-08T03:06:30;29.53;;;17.10;;
10902;SDS011;5504;47.312;11.060;2024-03-08T03:08:56;30.43;;;17.57;;
10902;SDS011;5504;47.312;11.060;2024-03-08T03:11:22;30.23;;;17.30;;
10902;SDS011;5504;47.312;11.060;2024-03-08T03:13:49;29.20;;;18.00;;
10902;SDS011;5504;47.312;11.060;2024-03-08T03:16:18;24.50;;;15.60;;
10902;SDS011;5504;47.312;11.060;2024-03-08T03:18:47;26.73;;;15.63;;
10902;SDS011;5504;47.312;11.060;2024-03-08T03:21:14;25.30;;;15.60;;
10902;SDS011;5504;47.312;11.060;2024-03-08T03:23:40;25.50;;;15.20;;
10902;SDS011;5504;47.312;11.060;2024-03-08T03:26:07;27.60;;;16.50;;
10902;SDS011;5504;47.312;11.060;2024-03-08T03:28:33;25.30;;;15.73;;
10902;SDS011;5504;47.312;11.060;2024-03-08T03:30:59;28.57;;;16.07;;
10902;SDS011;5504;47.312;11.060;2024-03-08T03:33:26;29.30;;;17.00;;
10902;SDS011;5504;47.312;11.060;2024-03-08T03:35:52;29.20;;;17.53;;
10902;SDS011;5504;47.312;11.060;2024-03-08T03:38:18;28.07;;;16.63;;
10902;SDS011;5504;47.312;11.060;2024-03-08T03:40:48;27.27;;;15.87;;
10902;SDS011;5504;47.312;11.060;2024-03-08T03:43:17;24.27;;;15.07;;
10902;SDS011;5504;47.312;11.060;2024-03-08T03:45:43;25.37;;;15.07;;
10902;SDS011;5504;47.312;11.060;2024-03-08T03:48:09;29.43;;;16.90;;
10902;SDS011;5504;47.312;11.060;2024-03-08T03:50:35;28.87;;;16.47;;
10902;SDS011;5504;47.312;11.060;2024-03-08T03:53:01;30.53;;;17.00;;
10902;SDS011;5504;47.312;11.060;2024-03-08T03:55:27;28.40;;;16.40;;
10902;SDS011;5504;47.312;11.060;2024-03-08T03:57:54;30.67;;;17.40;;
10902;SDS011;5504;47.312;11.060;2024-03-08T04:00:19;27.77;;;16.50;;
10902;SDS011;5504;47.312;11.060;2024-03-08T04:02:45;24.80;;;14.60;;
10902;SDS011;5504;47.312;11.060;2024-03-08T04:05:11;23.37;;;14.47;;
10902;SDS011;5504;47.312;11.060;2024-03-08T04:07:38;27.07;;;15.60;;
10902;SDS011;5504;47.312;11.060;2024-03-08T04:10:05;28.13;;;16.87;;
10902;SDS011;5504;47.312;11.060;2024-03-08T04:12:32;26.77;;;16.07;;
10902;SDS011;5504;47.312;11.060;2024-03-08T04:14:58;25.33;;;15.93;;
10902;SDS011;5504;47.312;11.060;2024-03-08T04:17:24;25.23;;;15.77;;
10902;SDS011;5504;47.312;11.060;2024-03-08T04:19:50;28.47;;;17.20;;
10902;SDS011;5504;47.312;11.060;2024-03-08T04:22:16;26.47;;;15.93;;
10902;SDS011;5504;47.312;11.060;2024-03-08T04:24:43;28.53;;;15.90;;
10902;SDS011;5504;47.312;11.060;2024-03-08T04:27:09;26.83;;;16.40;;
10902;SDS011;5504;47.312;11.060;2024-03-08T04:29:35;28.37;;;17.03;;
10902;SDS011;5504;47.312;11.060;2024-03-08T04:32:04;26.93;;;16.20;;
10902;SDS011;5504;47.312;11.060;2024-03-08T04:34:31;27.13;;;15.80;;
10902;SDS011;5504;47.312;11.060;2024-03-08T04:36:57;27.87;;;16.30;;
10902;SDS011;5504;47.312;11.060;2024-03-08T04:39:23;24.67;;;15.47;;
10902;SDS011;5504;47.312;11.060;2024-03-08T04:41:49;26.10;;;15.40;;
10902;SDS011;5504;47.312;11.060;2024-03-08T04:44:16;27.10;;;15.70;;
10902;SDS011;5504;47.312;11.060;2024-03-08T04:46:42;28.60;;;16.97;;
10902;SDS011;5504;47.312;11.060;2024-03-08T04:49:09;26.47;;;15.87;;
10902;SDS011;5504;47.312;11.060;2024-03-08T04:51:36;25.40;;;15.27;;
10902;SDS011;5504;47.312;11.060;2024-03-08T04:54:02;28.83;;;15.83;;
10902;SDS011;5504;47.312;11.060;2024-03-08T04:56:30;27.87;;;16.50;;
10902;SDS011;5504;47.312;11.060;2024-03-08T04:58:56;26.53;;;15.47;;
10902;SDS011;5504;47.312;11.060;2024-03-08T05:01:22;27.33;;;15.70;;
10902;SDS011;5504;47.312;11.060;2024-03-08T05:03:47;28.93;;;15.63;;
10902;SDS011;5504;47.312;11.060;2024-03-08T05:06:15;28.40;;;16.63;;
10902;SDS011;5504;47.312;11.060;2024-03-08T05:08:41;28.27;;;16.30;;
10902;SDS011;5504;47.312;11.060;2024-03-08T05:11:07;27.80;;;16.10;;
10902;SDS011;5504;47.312;11.060;2024-03-08T05:13:33;29.93;;;16.87;;
10902;SDS011;5504;47.312;11.060;2024-03-08T05:16:02;31.70;;;17.87;;
10902;SDS011;5504;47.312;11.060;2024-03-08T05:18:28;29.73;;;16.70;;
10902;SDS011;5504;47.312;11.060;2024-03-08T05:20:54;30.00;;;17.17;;
10902;SDS011;5504;47.312;11.060;2024-03-08T05:23:20;30.60;;;17.23;;
10902;SDS011;5504;47.312;11.060;2024-03-08T05:25:47;32.20;;;17.60;;
10902;SDS011;5504;47.312;11.060;2024-03-08T05:28:13;31.33;;;17.43;;
10902;SDS011;5504;47.312;11.060;2024-03-08T05:30:38;29.97;;;17.37;;
10902;SDS011;5504;47.312;11.060;2024-03-08T05:33:04;26.50;;;15.67;;
10902;SDS011;5504;47.312;11.060;2024-03-08T05:35:30;29.40;;;16.30;;
10902;SDS011;5504;47.312;11.060;2024-03-08T05:37:57;29.27;;;16.67;;
10902;SDS011;5504;47.312;11.060;2024-03-08T05:40:23;31.10;;;17.00;;
10902;SDS011;5504;47.312;11.060;2024-03-08T05:42:49;30.23;;;17.03;;
10902;SDS011;5504;47.312;11.060;2024-03-08T05:45:15;29.03;;;16.53;;
10902;SDS011;5504;47.312;11.060;2024-03-08T05:47:40;26.33;;;15.67;;
10902;SDS011;5504;47.312;11.060;2024-03-08T05:50:07;25.27;;;14.77;;
10902;SDS011;5504;47.312;11.060;2024-03-08T05:52:35;28.40;;;15.67;;
10902;SDS011;5504;47.312;11.060;2024-03-08T05:55:02;31.53;;;17.07;;
10902;SDS011;5504;47.312;11.060;2024-03-08T05:57:32;26.27;;;15.40;;
10902;SDS011;5504;47.312;11.060;2024-03-08T05:59:57;29.13;;;16.43;;
10902;SDS011;5504;47.312;11.060;2024-03-08T06:02:23;26.57;;;15.87;;
10902;SDS011;5504;47.312;11.060;2024-03-08T06:04:49;27.87;;;15.43;;
10902;SDS011;5504;47.312;11.060;2024-03-08T06:07:15;27.87;;;15.63;;
10902;SDS011;5504;47.312;11.060;2024-03-08T06:09:42;29.37;;;15.87;;
10902;SDS011;5504;47.312;11.060;2024-03-08T06:12:11;29.87;;;16.73;;
10902;SDS011;5504;47.312;11.060;2024-03-08T06:14:37;27.97;;;16.47;;
10902;SDS011;5504;47.312;11.060;2024-03-08T06:17:03;27.47;;;15.87;;
10902;SDS011;5504;47.312;11.060;2024-03-08T06:19:32;28.50;;;15.97;;
10902;SDS011;5504;47.312;11.060;2024-03-08T06:21:58;27.47;;;16.03;;
10902;SDS011;5504;47.312;11.060;2024-03-08T06:24:27;28.13;;;15.93;;
10902;SDS011;5504;47.312;11.060;2024-03-08T06:26:53;26.47;;;15.60;;
10902;SDS011;5504;47.312;11.060;2024-03-08T06:29:19;26.03;;;14.73;;
10902;SDS011;5504;47.312;11.060;2024-03-08T06:31:45;25.63;;;15.20;;
10902;SDS011;5504;47.312;11.060;2024-03-08T06:34:11;26.30;;;15.00;;
10902;SDS011;5504;47.312;11.060;2024-03-08T06:36:36;27.97;;;14.90;;
10902;SDS011;5504;47.312;11.060;2024-03-08T06:39:03;25.57;;;15.47;;
10902;SDS011;5504;47.312;11.060;2024-03-08T06:41:34;27.40;;;14.83;;
10902;SDS011;5504;47.312;11.060;2024-03-08T06:44:01;26.23;;;16.40;;
10902;SDS011;5504;47.312;11.060;2024-03-08T06:46:26;24.40;;;14.67;;
10902;SDS011;5504;47.312;11.060;2024-03-08T06:48:53;25.57;;;14.70;;
10902;SDS011;5504;47.312;11.060;2024-03-08T06:51:19;23.40;;;14.37;;
10902;SDS011;5504;47.312;11.060;2024-03-08T06:53:45;27.97;;;15.20;;
10902;SDS011;5504;47.312;11.060;2024-03-08T06:56:11;23.87;;;14.80;;
10902;SDS011;5504;47.312;11.060;2024-03-08T06:58:36;23.97;;;14.37;;
10902;SDS011;5504;47.312;11.060;2024-03-08T07:01:02;22.63;;;14.10;;
10902;SDS011;5504;47.312;11.060;2024-03-08T07:03:32;25.37;;;16.17;;
10902;SDS011;5504;47.312;11.060;2024-03-08T07:05:58;25.90;;;16.03;;
10902;SDS011;5504;47.312;11.060;2024-03-08T07:08:24;22.90;;;15.70;;
10902;SDS011;5504;47.312;11.060;2024-03-08T07:10:52;23.63;;;15.53;;
10902;SDS011;5504;47.312;11.060;2024-03-08T07:13:18;25.90;;;15.93;;
10902;SDS011;5504;47.312;11.060;2024-03-08T07:15:44;23.80;;;15.50;;
10902;SDS011;5504;47.312;11.060;2024-03-08T07:18:10;18.17;;;12.23;;
10902;SDS011;5504;47.312;11.060;2024-03-08T07:20:39;18.73;;;11.40;;
10902;SDS011;5504;47.312;11.060;2024-03-08T07:23:06;16.73;;;11.47;;
10902;SDS011;5504;47.312;11.060;2024-03-08T07:25:33;15.73;;;10.50;;
10902;SDS011;5504;47.312;11.060;2024-03-08T07:28:00;22.07;;;16.03;;
10902;SDS011;5504;47.312;11.060;2024-03-08T07:30:26;19.27;;;14.40;;
10902;SDS011;5504;47.312;11.060;2024-03-08T07:33:10;14.23;;;10.13;;
10902;SDS011;5504;47.312;11.060;2024-03-08T07:35:37;14.73;;;10.70;;
10902;SDS011;5504;47.312;11.060;2024-03-08T07:38:06;17.83;;;13.90;;
10902;SDS011;5504;47.312;11.060;2024-03-08T07:40:36;12.83;;;8.77;;
10902;SDS011;5504;47.312;11.060;2024-03-08T07:43:09;13.10;;;10.40;;
10902;SDS011;5504;47.312;11.060;2024-03-08T07:45:35;11.63;;;7.57;;
10902;SDS011;5504;47.312;11.060;2024-03-08T07:48:02;10.70;;;7.50;;
10902;SDS011;5504;47.312;11.060;2024-03-08T07:50:28;10.17;;;7.13;;
10902;SDS011;5504;47.312;11.060;2024-03-08T07:52:54;10.63;;;7.57;;
10902;SDS011;5504;47.312;11.060;2024-03-08T07:55:20;11.70;;;8.23;;
10902;SDS011;5504;47.312;11.060;2024-03-08T07:57:49;12.70;;;8.13;;
10902;SDS011;5504;47.312;11.060;2024-03-08T08:00:15;10.90;;;7.40;;
10902;SDS011;5504;47.312;11.060;2024-03-08T08:02:44;9.60;;;6.83;;
10902;SDS011;5504;47.312;11.060;2024-03-08T08:05:11;9.27;;;6.03;;
10902;SDS011;5504;47.312;11.060;2024-03-08T08:07:37;9.33;;;6.17;;
10902;SDS011;5504;47.312;11.060;2024-03-08T08:10:02;7.60;;;5.77;;
10902;SDS011;5504;47.312;11.060;2024-03-08T08:12:31;10.07;;;6.73;;
10902;SDS011;5504;47.312;11.060;2024-03-08T08:14:59;10.00;;;6.60;;
10902;SDS011;5504;47.312;11.060;2024-03-08T08:17:25;9.83;;;6.77;;
10902;SDS011;5504;47.312;11.060;2024-03-08T08:19:51;8.87;;;5.97;;
10902;SDS011;5504;47.312;11.060;2024-03-08T08:22:17;7.70;;;5.60;;
10902;SDS011;5504;47.312;11.060;2024-03-08T08:24:43;7.43;;;5.23;;
10902;SDS011;5504;47.312;11.060;2024-03-08T08:27:09;6.77;;;4.40;;
10902;SDS011;5504;47.312;11.060;2024-03-08T08:29:37;7.23;;;4.30;;
10902;SDS011;5504;47.312;11.060;2024-03-08T08:32:02;5.47;;;4.30;;
10902;SDS011;5504;47.312;11.060;2024-03-08T08:34:28;5.40;;;4.10;;
10902;SDS011;5504;47.312;11.060;2024-03-08T08:36:55;7.40;;;4.70;;
10902;SDS011;5504;47.312;11.060;2024-03-08T08:39:20;7.03;;;4.63;;
10902;SDS011;5504;47.312;11.060;2024-03-08T08:41:48;6.93;;;4.83;;
10902;SDS011;5504;47.312;11.060;2024-03-08T08:44:13;6.47;;;4.70;;
10902;SDS011;5504;47.312;11.060;2024-03-08T08:46:40;7.77;;;5.20;;
10902;SDS011;5504;47.312;11.060;2024-03-08T08:49:06;6.07;;;3.90;;
10902;SDS011;5504;47.312;11.060;2024-03-08T08:51:35;4.77;;;3.93;;
10902;SDS011;5504;47.312;11.060;2024-03-08T08:54:04;5.20;;;3.57;;
10902;SDS011;5504;47.312;11.060;2024-03-08T08:56:31;4.27;;;3.03;;
10902;SDS011;5504;47.312;11.060;2024-03-08T08:58:57;5.27;;;2.87;;
10902;SDS011;5504;47.312;11.060;2024-03-08T09:01:23;3.70;;;2.70;;
10902;SDS011;5504;47.312;11.060;2024-03-08T09:03:48;2.90;;;2.47;;
10902;SDS011;5504;47.312;11.060;2024-03-08T09:06:15;2.60;;;2.23;;
10902;SDS011;5504;47.312;11.060;2024-03-08T09:08:42;3.10;;;2.03;;
10902;SDS011;5504;47.312;11.060;2024-03-08T09:11:09;3.30;;;2.00;;
10902;SDS011;5504;47.312;11.060;2024-03-08T09:13:35;2.93;;;2.00;;
10902;SDS011;5504;47.312;11.060;2024-03-08T09:16:02;2.43;;;2.23;;
10902;SDS011;5504;47.312;11.060;2024-03-08T09:18:30;3.57;;;2.00;;
10902;SDS011;5504;47.312;11.060;2024-03-08T09:20:57;4.27;;;1.87;;
10902;SDS011;5504;47.312;11.060;2024-03-08T09:23:25;5.10;;;2.23;;
10902;SDS011;5504;47.312;11.060;2024-03-08T09:25:55;2.80;;;2.10;;
10902;SDS011;5504;47.312;11.060;2024-03-08T09:28:22;2.23;;;1.80;;
10902;SDS011;5504;47.312;11.060;2024-03-08T09:30:49;3.13;;;1.90;;
10902;SDS011;5504;47.312;11.060;2024-03-08T09:33:14;3.07;;;2.00;;
10902;SDS011;5504;47.312;11.060;2024-03-08T09:35:44;3.53;;;1.80;;
10902;SDS011;5504;47.312;11.060;2024-03-08T09:38:12;3.07;;;1.70;;
10902;SDS011;5504;47.312;11.060;2024-03-08T09:40:38;4.57;;;1.80;;
10902;SDS011;5504;47.312;11.060;2024-03-08T09:43:07;2.53;;;1.70;;
10902;SDS011;5504;47.312;11.060;2024-03-08T09:45:35;1.83;;;1.30;;
10902;SDS011;5504;47.312;11.060;2024-03-08T09:48:06;2.53;;;1.40;;
10902;SDS011;5504;47.312;11.060;2024-03-08T09:50:38;2.23;;;1.30;;
10902;SDS011;5504;47.312;11.060;2024-03-08T09:53:04;1.57;;;1.40;;
10902;SDS011;5504;47.312;11.060;2024-03-08T09:55:34;2.33;;;1.40;;
10902;SDS011;5504;47.312;11.060;2024-03-08T09:58:07;2.90;;;1.30;;
10902;SDS011;5504;47.312;11.060;2024-03-08T10:00:54;2.57;;;1.30;;
10902;SDS011;5504;47.312;11.060;2024-03-08T10:03:23;2.50;;;1.53;;
10902;SDS011;5504;47.312;11.060;2024-03-08T10:05:51;2.97;;;1.47;;
10902;SDS011;5504;47.312;11.060;2024-03-08T10:08:17;1.97;;;1.40;;
10902;SDS011;5504;47.312;11.060;2024-03-08T10:10:44;3.43;;;1.53;;
10902;SDS011;5504;47.312;11.060;2024-03-08T10:13:10;2.87;;;1.50;;
10902;SDS011;5504;47.312;11.060;2024-03-08T10:15:37;2.20;;;1.50;;
10902;SDS011;5504;47.312;11.060;2024-03-08T10:18:05;2.87;;;1.60;;
10902;SDS011;5504;47.312;11.060;2024-03-08T10:20:32;2.43;;;1.60;;
10902;SDS011;5504;47.312;11.060;2024-03-08T10:23:04;2.13;;;1.50;;
10902;SDS011;5504;47.312;11.060;2024-03-08T10:25:31;2.57;;;1.63;;
10902;SDS011;5504;47.312;11.060;2024-03-08T10:27:58;3.20;;;2.03;;
10902;SDS011;5504;47.312;11.060;2024-03-08T10:30:23;2.70;;;2.07;;
10902;SDS011;5504;47.312;11.060;2024-03-08T10:32:49;2.30;;;1.83;;
10902;SDS011;5504;47.312;11.060;2024-03-08T10:35:17;3.43;;;2.13;;
10902;SDS011;5504;47.312;11.060;2024-03-08T10:37:47;1.90;;;1.60;;
10902;SDS011;5504;47.312;11.060;2024-03-08T10:40:18;2.93;;;1.30;;
10902;SDS011;5504;47.312;11.060;2024-03-08T10:42:58;2.83;;;1.70;;
10902;SDS011;5504;47.312;11.060;2024-03-08T10:45:37;2.00;;;1.57;;
10902;SDS011;5504;47.312;11.060;2024-03-08T10:51:02;2.80;;;1.20;;
10902;SDS011;5504;47.312;11.060;2024-03-08T10:53:28;2.40;;;1.30;;
10902;SDS011;5504;47.312;11.060;2024-03-08T10:55:57;2.80;;;1.20;;
10902;SDS011;5504;47.312;11.060;2024-03-08T10:58:28;2.83;;;1.23;;
10902;SDS011;5504;47.312;11.060;2024-03-08T11:00:55;2.07;;;1.20;;
10902;SDS011;5504;47.312;11.060;2024-03-08T11:06:13;1.83;;;1.30;;
10902;SDS011;5504;47.312;11.060;2024-03-08T11:08:43;2.33;;;1.27;;
10902;SDS011;5504;47.312;11.060;2024-03-08T11:14:02;0.90;;;0.80;;
10902;SDS011;5504;47.312;11.060;2024-03-08T11:18:59;2.17;;;1.10;;
10902;SDS011;5504;47.312;11.060;2024-03-08T11:21:29;1.40;;;1.00;;
10902;SDS011;5504;47.312;11.060;2024-03-08T11:24:01;1.50;;;0.90;;
10902;SDS011;5504;47.312;11.060;2024-03-08T11:26:33;2.30;;;0.80;;
10902;SDS011;5504;47.312;11.060;2024-03-08T11:34:40;1.80;;;1.00;;
10902;SDS011;5504;47.312;11.060;2024-03-08T11:37:13;2.13;;;1.00;;
10902;SDS011;5504;47.312;11.060;2024-03-08T11:39:45;1.88;;;0.93;;
10902;SDS011;5504;47.312;11.060;2024-03-08T11:42:16;1.95;;;1.10;;
10902;SDS011;5504;47.312;11.060;2024-03-08T11:44:43;1.10;;;1.00;;
10902;SDS011;5504;47.312;11.060;2024-03-08T11:47:10;1.83;;;0.90;;
10902;SDS011;5504;47.312;11.060;2024-03-08T11:49:36;2.47;;;1.20;;
10902;SDS011;5504;47.312;11.060;2024-03-08T11:52:03;1.92;;;1.15;;
10902;SDS011;5504;47.312;11.060;2024-03-08T11:54:29;2.08;;;1.17;;
10902;SDS011;5504;47.312;11.060;2024-03-08T11:56:58;1.85;;;1.10;;
10902;SDS011;5504;47.312;11.060;2024-03-08T11:59:30;1.50;;;1.10;;
10902;SDS011;5504;47.312;11.060;2024-03-08T12:02:05;1.05;;;0.93;;
10902;SDS011;5504;47.312;11.060;2024-03-08T12:04:31;1.58;;;1.17;;
10902;SDS011;5504;47.312;11.060;2024-03-08T12:07:01;2.65;;;1.13;;
10902;SDS011;5504;47.312;11.060;2024-03-08T12:09:28;2.72;;;1.30;;
10902;SDS011;5504;47.312;11.060;2024-03-08T12:11:54;3.00;;;1.60;;
10902;SDS011;5504;47.312;11.060;2024-03-08T12:14:20;1.70;;;1.43;;
10902;SDS011;5504;47.312;11.060;2024-03-08T12:16:46;2.70;;;1.50;;
10902;SDS011;5504;47.312;11.060;2024-03-08T12:19:13;2.30;;;1.20;;
10902;SDS011;5504;47.312;11.060;2024-03-08T12:21:41;2.57;;;1.70;;
10902;SDS011;5504;47.312;11.060;2024-03-08T12:24:14;2.27;;;1.30;;
10902;SDS011;5504;47.312;11.060;2024-03-08T12:26:44;2.17;;;1.33;;
10902;SDS011;5504;47.312;11.060;2024-03-08T12:29:26;2.83;;;1.30;;
10902;SDS011;5504;47.312;11.060;2024-03-08T12:31:53;3.97;;;1.50;;
10902;SDS011;5504;47.312;11.060;2024-03-08T12:34:21;9.47;;;6.07;;
10902;SDS011;5504;47.312;11.060;2024-03-08T12:36:47;3.20;;;1.63;;
10902;SDS011;5504;47.312;11.060;2024-03-08T12:39:15;2.07;;;1.30;;
10902;SDS011;5504;47.312;11.060;2024-03-08T12:41:43;2.10;;;1.40;;
10902;SDS011;5504;47.312;11.060;2024-03-08T12:44:09;1.60;;;1.25;;
10902;SDS011;5504;47.312;11.060;2024-03-08T12:46:39;1.40;;;1.20;;
10902;SDS011;5504;47.312;11.060;2024-03-08T12:49:08;1.98;;;1.40;;
10902;SDS011;5504;47.312;11.060;2024-03-08T12:51:35;2.03;;;1.40;;
10902;SDS011;5504;47.312;11.060;2024-03-08T12:54:02;3.05;;;1.48;;
10902;SDS011;5504;47.312;11.060;2024-03-08T12:56:31;2.60;;;1.67;;
10902;SDS011;5504;47.312;11.060;2024-03-08T12:58:58;2.23;;;1.20;;
10902;SDS011;5504;47.312;11.060;2024-03-08T13:01:25;1.40;;;1.13;;
10902;SDS011;5504;47.312;11.060;2024-03-08T13:03:52;1.87;;;1.20;;
10902;SDS011;5504;47.312;11.060;2024-03-08T13:06:18;1.53;;;1.10;;
10902;SDS011;5504;47.312;11.060;2024-03-08T13:08:46;2.00;;;1.17;;
10902;SDS011;5504;47.312;11.060;2024-03-08T13:11:13;2.67;;;1.30;;
10902;SDS011;5504;47.312;11.060;2024-03-08T13:13:42;1.27;;;1.00;;
10902;SDS011;5504;47.312;11.060;2024-03-08T13:16:09;1.77;;;1.20;;
10902;SDS011;5504;47.312;11.060;2024-03-08T13:18:36;4.43;;;1.20;;
10902;SDS011;5504;47.312;11.060;2024-03-08T13:21:02;2.03;;;1.30;;
10902;SDS011;5504;47.312;11.060;2024-03-08T13:23:32;3.33;;;1.10;;
10902;SDS011;5504;47.312;11.060;2024-03-08T13:26:08;1.33;;;1.00;;
10902;SDS011;5504;47.312;11.060;2024-03-08T13:28:40;1.77;;;1.00;;
10902;SDS011;5504;47.312;11.060;2024-03-08T13:31:06;1.43;;;1.07;;
10902;SDS011;5504;47.312;11.060;2024-03-08T13:33:35;2.07;;;1.20;;
10902;SDS011;5504;47.312;11.060;2024-03-08T13:36:02;3.23;;;1.30;;
10902;SDS011;5504;47.312;11.060;2024-03-08T13:38:29;1.60;;;1.23;;
10902;SDS011;5504;47.312;11.060;2024-03-08T13:40:57;2.90;;;1.23;;
10902;SDS011;5504;47.312;11.060;2024-03-08T13:43:24;2.50;;;1.13;;
10902;SDS011;5504;47.312;11.060;2024-03-08T13:45:49;2.83;;;1.10;;
10902;SDS011;5504;47.312;11.060;2024-03-08T13:48:15;2.43;;;1.23;;
10902;SDS011;5504;47.312;11.060;2024-03-08T13:50:41;2.77;;;1.83;;
10902;SDS011;5504;47.312;11.060;2024-03-08T13:53:07;2.40;;;1.47;;
10902;SDS011;5504;47.312;11.060;2024-03-08T13:55:35;1.97;;;1.13;;
10902;SDS011;5504;47.312;11.060;2024-03-08T13:58:00;2.30;;;1.20;;
10902;SDS011;5504;47.312;11.060;2024-03-08T14:00:27;2.43;;;1.70;;
10902;SDS011;5504;47.312;11.060;2024-03-08T14:02:58;2.83;;;1.70;;
10902;SDS011;5504;47.312;11.060;2024-03-08T14:05:24;2.23;;;1.50;;
10902;SDS011;5504;47.312;11.060;2024-03-08T14:07:50;3.10;;;1.60;;
10902;SDS011;5504;47.312;11.060;2024-03-08T14:10:16;4.03;;;1.13;;
10902;SDS011;5504;47.312;11.060;2024-03-08T14:12:44;1.10;;;1.00;;
10902;SDS011;5504;47.312;11.060;2024-03-08T14:15:13;1.37;;;1.10;;
10902;SDS011;5504;47.312;11.060;2024-03-08T14:17:38;1.43;;;1.13;;
10902;SDS011;5504;47.312;11.060;2024-03-08T14:20:05;1.80;;;1.07;;
10902;SDS011;5504;47.312;11.060;2024-03-08T14:22:31;1.40;;;1.00;;
10902;SDS011;5504;47.312;11.060;2024-03-08T14:24:57;2.07;;;1.10;;
10902;SDS011;5504;47.312;11.060;2024-03-08T14:27:23;1.10;;;0.90;;
10902;SDS011;5504;47.312;11.060;2024-03-08T14:29:49;1.13;;;0.80;;
10902;SDS011;5504;47.312;11.060;2024-03-08T14:32:14;1.53;;;1.00;;
10902;SDS011;5504;47.312;11.060;2024-03-08T14:34:40;1.17;;;0.93;;
10902;SDS011;5504;47.312;11.060;2024-03-08T14:37:06;1.60;;;1.00;;
10902;SDS011;5504;47.312;11.060;2024-03-08T14:39:36;1.20;;;1.10;;
10902;SDS011;5504;47.312;11.060;2024-03-08T14:42:02;1.13;;;0.97;;
10902;SDS011;5504;47.312;11.060;2024-03-08T14:44:28;2.33;;;1.20;;
10902;SDS011;5504;47.312;11.060;2024-03-08T14:46:57;1.40;;;1.20;;
10902;SDS011;5504;47.312;11.060;2024-03-08T14:49:24;2.23;;;1.07;;